createdAt,value
2022-09-15T00:01:14.065Z,99.90
2022-09-15T00:03:41.469Z,99.90
2022-09-15T00:06:09.500Z,99.90
2022-09-15T00:08:37.436Z,99.90
2022-09-15T00:11:11.772Z,99.90
2022-09-15T00:13:40.881Z,99.90
2022-09-15T00:16:11.640Z,99.90
2022-09-15T00:18:42.884Z,99.90
2022-09-15T00:21:15.919Z,99.90
2022-09-15T00:23:43.630Z,99.90
2022-09-15T00:26:14.392Z,99.90
2022-09-15T00:28:42.489Z,99.90
2022-09-15T00:31:15.593Z,99.90
2022-09-15T00:33:46.190Z,99.90
2022-09-15T00:36:14.583Z,99.90
2022-09-15T00:38:43.053Z,99.90
2022-09-15T00:41:22.111Z,99.90
2022-09-15T00:44:05.917Z,99.90
2022-09-15T00:46:42.464Z,99.90
2022-09-15T00:49:21.724Z,99.90
2022-09-15T00:52:04.009Z,99.90
2022-09-15T00:54:49.443Z,99.90
2022-09-15T00:57:33.685Z,99.90
2022-09-15T01:00:09.362Z,99.90
2022-09-15T01:02:38.474Z,99.90
2022-09-15T01:05:11.735Z,99.90
2022-09-15T01:07:59.257Z,99.90
2022-09-15T01:10:34.163Z,99.90
2022-09-15T01:13:08.540Z,99.90
2022-09-15T01:16:14.153Z,99.90
2022-09-15T01:19:16.215Z,99.90
2022-09-15T01:22:38.556Z,99.90
2022-09-15T01:25:32.060Z,99.90
2022-09-15T01:28:23.378Z,99.90
2022-09-15T01:31:03.901Z,99.90
2022-09-15T01:34:03.203Z,99.90
2022-09-15T01:37:04.964Z,99.90
2022-09-15T01:39:43.457Z,99.90
2022-09-15T01:42:16.636Z,99.90
2022-09-15T01:44:57.925Z,99.90
2022-09-15T01:47:30.108Z,99.90
2022-09-15T01:50:20.654Z,99.90
2022-09-15T01:52:54.831Z,99.90
2022-09-15T01:55:38.090Z,99.90
2022-09-15T01:58:05.573Z,99.90
2022-09-15T02:00:40.055Z,99.90
2022-09-15T02:03:21.337Z,99.90
2022-09-15T02:06:02.893Z,99.90
2022-09-15T02:08:43.672Z,99.90
2022-09-15T02:11:17.246Z,99.90
2022-09-15T02:14:17.540Z,99.90
2022-09-15T02:16:52.557Z,99.90
2022-09-15T02:19:31.368Z,99.90
2022-09-15T02:22:24.496Z,99.90
2022-09-15T02:25:03.165Z,99.90
2022-09-15T02:27:37.845Z,99.90
2022-09-15T02:30:13.398Z,99.90
2022-09-15T02:32:49.406Z,99.90
2022-09-15T02:35:17.780Z,99.90
2022-09-15T02:37:46.383Z,99.90
2022-09-15T02:40:13.633Z,99.90
2022-09-15T02:42:40.952Z,99.90
2022-09-15T02:45:09.118Z,99.90
2022-09-15T02:47:36.196Z,99.90
2022-09-15T02:50:03.697Z,99.90
2022-09-15T02:52:30.898Z,99.90
2022-09-15T02:54:58.329Z,99.90
2022-09-15T02:57:25.662Z,99.90
2022-09-15T03:00:11.406Z,99.90
2022-09-15T03:02:38.727Z,99.90
2022-09-15T03:05:08.399Z,99.90
2022-09-15T03:07:37.647Z,99.90
2022-09-15T03:10:10.614Z,99.90
2022-09-15T03:12:44.014Z,99.90
2022-09-15T03:15:14.644Z,99.90
2022-09-15T03:17:44.738Z,99.90
2022-09-15T03:20:18.486Z,99.90
2022-09-15T03:22:45.898Z,99.90
2022-09-15T03:25:13.563Z,99.90
2022-09-15T03:27:40.919Z,99.90
2022-09-15T03:30:10.221Z,99.90
2022-09-15T03:32:37.556Z,99.90
2022-09-15T03:35:07.086Z,99.90
2022-09-15T03:37:34.767Z,99.90
2022-09-15T03:40:03.987Z,99.90
2022-09-15T03:42:31.498Z,99.90
2022-09-15T03:44:58.625Z,99.90
2022-09-15T03:47:25.996Z,99.90
2022-09-15T03:49:53.054Z,99.90
2022-09-15T03:52:20.145Z,99.90
2022-09-15T03:54:49.157Z,99.90
2022-09-15T03:57:16.270Z,99.90
2022-09-15T03:59:43.455Z,99.90
2022-09-15T04:02:10.767Z,99.90
2022-09-15T04:04:38.046Z,99.90
2022-09-15T04:07:05.370Z,99.90
2022-09-15T04:09:32.721Z,99.90
2022-09-15T04:11:59.966Z,99.90
2022-09-15T04:14:27.001Z,99.90
2022-09-15T04:16:54.106Z,99.90
2022-09-15T04:19:21.317Z,99.90
2022-09-15T04:21:48.528Z,99.90
2022-09-15T04:24:15.886Z,99.90
2022-09-15T04:26:43.083Z,99.90
2022-09-15T04:29:16.584Z,99.90
2022-09-15T04:31:43.942Z,99.90
2022-09-15T04:34:11.299Z,99.90
2022-09-15T04:36:38.888Z,99.90
2022-09-15T04:39:06.810Z,99.90
2022-09-15T04:41:34.009Z,99.90
2022-09-15T04:44:01.261Z,99.90
2022-09-15T04:46:28.698Z,99.90
2022-09-15T04:48:57.030Z,99.90
2022-09-15T04:51:25.213Z,99.90
2022-09-15T04:53:52.580Z,99.90
2022-09-15T04:56:23.832Z,99.90
2022-09-15T04:59:03.595Z,99.90
2022-09-15T05:01:35.411Z,99.90
2022-09-15T05:04:04.468Z,99.90
2022-09-15T05:06:32.755Z,99.90
2022-09-15T05:09:00.014Z,99.90
2022-09-15T05:11:28.564Z,99.90
2022-09-15T05:13:55.839Z,99.90
2022-09-15T05:16:29.451Z,99.90
2022-09-15T05:19:00.680Z,99.90
2022-09-15T05:21:28.299Z,99.90
2022-09-15T05:23:56.213Z,99.90
2022-09-15T05:26:28.443Z,99.90
2022-09-15T05:28:57.212Z,99.90
2022-09-15T05:31:31.581Z,99.90
2022-09-15T05:34:02.963Z,99.90
2022-09-15T05:36:30.599Z,99.90
2022-09-15T05:38:58.572Z,99.90
2022-09-15T05:41:28.062Z,99.90
2022-09-15T05:43:58.078Z,99.90
2022-09-15T05:46:29.339Z,99.90
2022-09-15T05:48:58.853Z,99.90
2022-09-15T05:51:48.322Z,99.90
2022-09-15T05:54:15.530Z,99.90
2022-09-15T05:56:42.655Z,99.90
2022-09-15T05:59:09.915Z,99.90
2022-09-15T06:01:37.031Z,99.90
2022-09-15T06:04:04.308Z,99.90
2022-09-15T06:06:33.162Z,99.90
2022-09-15T06:09:01.838Z,99.90
2022-09-15T06:11:33.871Z,99.90
2022-09-15T06:14:03.457Z,99.90
2022-09-15T06:16:34.679Z,99.90
2022-09-15T06:19:02.741Z,99.90
2022-09-15T06:21:32.546Z,99.90
2022-09-15T06:24:03.761Z,99.90
2022-09-15T06:26:31.476Z,99.90
2022-09-15T06:29:01.838Z,99.90
2022-09-15T06:31:31.935Z,99.90
2022-09-15T06:34:00.015Z,99.90
2022-09-15T06:36:30.528Z,99.90
2022-09-15T06:38:58.581Z,99.90
2022-09-15T06:41:26.571Z,99.90
2022-09-15T06:43:53.869Z,99.90
2022-09-15T06:46:25.313Z,99.90
2022-09-15T06:48:53.811Z,99.90
2022-09-15T06:51:28.949Z,99.90
2022-09-15T06:53:56.122Z,99.90
2022-09-15T06:56:24.372Z,99.90
2022-09-15T06:58:52.176Z,99.90
2022-09-15T07:01:28.639Z,99.90
2022-09-15T07:03:59.070Z,99.90
2022-09-15T07:06:30.612Z,99.90
2022-09-15T07:09:02.647Z,99.90
2022-09-15T07:11:30.770Z,99.90
2022-09-15T07:13:58.050Z,99.90
2022-09-15T07:16:28.196Z,99.90
2022-09-15T07:19:01.966Z,99.90
2022-09-15T07:21:29.530Z,99.90
2022-09-15T07:24:02.727Z,99.90
2022-09-15T07:26:32.515Z,99.90
2022-09-15T07:29:02.677Z,99.90
2022-09-15T07:31:33.063Z,99.90
2022-09-15T07:34:01.258Z,99.90
2022-09-15T07:36:30.027Z,99.90
2022-09-15T07:38:57.796Z,99.90
2022-09-15T07:41:28.470Z,99.90
2022-09-15T07:43:59.237Z,99.90
2022-09-15T07:46:31.238Z,99.90
2022-09-15T07:48:58.951Z,99.90
2022-09-15T07:51:26.806Z,99.90
2022-09-15T07:53:54.750Z,99.90
2022-09-15T07:56:23.493Z,99.90
2022-09-15T07:58:51.396Z,99.90
2022-09-15T08:01:22.647Z,99.90
2022-09-15T08:03:52.642Z,99.90
2022-09-15T08:06:23.758Z,99.90
2022-09-15T08:08:56.353Z,99.90
2022-09-15T08:11:28.178Z,99.90
2022-09-15T08:13:55.529Z,99.90
2022-09-15T08:16:24.950Z,99.90
2022-09-15T08:18:54.671Z,99.90
2022-09-15T08:21:23.449Z,99.90
2022-09-15T08:23:56.800Z,99.90
2022-09-15T08:26:26.168Z,99.90
2022-09-15T08:28:53.841Z,99.90
2022-09-15T08:31:21.808Z,99.90
2022-09-15T08:33:51.842Z,99.90
2022-09-15T08:36:19.273Z,99.90
2022-09-15T08:38:47.233Z,99.90
2022-09-15T08:41:32.518Z,99.90
2022-09-15T08:44:34.735Z,99.90
2022-09-15T08:47:37.822Z,99.90
2022-09-15T08:50:27.784Z,99.90
2022-09-15T08:53:07.060Z,99.90
2022-09-15T08:55:55.251Z,99.90
2022-09-15T08:58:30.121Z,99.90
2022-09-15T09:01:24.672Z,99.90
2022-09-15T09:04:23.968Z,99.90
2022-09-15T09:07:16.908Z,99.90
2022-09-15T09:09:56.694Z,99.90
2022-09-15T09:12:51.816Z,99.90
2022-09-15T09:15:59.392Z,99.90
2022-09-15T09:18:29.520Z,99.90
2022-09-15T09:21:12.838Z,99.90
2022-09-15T09:24:05.554Z,99.90
2022-09-15T09:26:36.693Z,99.90
2022-09-15T09:29:39.502Z,99.90
2022-09-15T09:33:05.168Z,99.90
2022-09-15T09:35:54.658Z,99.90
2022-09-15T09:38:28.912Z,99.90
2022-09-15T09:41:01.391Z,99.90
2022-09-15T09:43:31.704Z,99.90
2022-09-15T09:45:59.490Z,99.90
2022-09-15T09:48:29.878Z,99.90
2022-09-15T09:50:57.208Z,99.90
2022-09-15T09:53:33.156Z,99.90
2022-09-15T09:56:13.199Z,99.90
2022-09-15T09:58:40.336Z,99.90
2022-09-15T10:01:26.671Z,99.90
2022-09-15T10:04:19.374Z,99.90
2022-09-15T10:06:47.824Z,99.90
2022-09-15T10:09:19.548Z,99.90
2022-09-15T10:11:51.639Z,99.90
2022-09-15T10:14:26.548Z,99.90
2022-09-15T10:17:20.872Z,99.90
2022-09-15T10:19:59.668Z,99.90
2022-09-15T10:22:40.362Z,99.90
2022-09-15T10:25:22.662Z,99.90
2022-09-15T10:28:08.450Z,99.90
2022-09-15T10:30:37.049Z,99.90
2022-09-15T10:33:23.550Z,99.90
2022-09-15T10:35:52.011Z,99.80
2022-09-15T10:38:56.129Z,99.60
2022-09-15T10:41:32.395Z,99.40
2022-09-15T10:44:30.578Z,99.40
2022-09-15T10:47:09.445Z,98.90
2022-09-15T10:49:58.100Z,98.50
2022-09-15T10:52:29.335Z,98.80
2022-09-15T10:55:14.565Z,98.80
2022-09-15T10:58:05.135Z,97.80
2022-09-15T11:01:11.561Z,99.00
2022-09-15T11:03:59.051Z,98.40
2022-09-15T11:06:47.616Z,98.60
2022-09-15T11:09:25.829Z,98.90
2022-09-15T11:12:17.353Z,98.80
2022-09-15T11:15:29.433Z,98.00
2022-09-15T11:18:24.303Z,98.00
2022-09-15T11:21:02.664Z,98.50
2022-09-15T11:23:46.759Z,98.10
2022-09-15T11:26:26.242Z,97.60
2022-09-15T11:29:05.752Z,97.30
2022-09-15T11:31:42.689Z,97.50
2022-09-15T11:34:23.582Z,97.70
2022-09-15T11:37:10.021Z,97.40
2022-09-15T11:39:48.815Z,96.60
2022-09-15T11:42:38.755Z,97.20
2022-09-15T11:48:37.329Z,97.50
2022-09-15T11:51:08.393Z,97.00
2022-09-15T11:54:04.123Z,97.40
2022-09-15T11:56:46.702Z,96.80
2022-09-15T11:59:53.539Z,97.10
2022-09-15T12:02:27.550Z,97.40
2022-09-15T12:05:11.474Z,97.30
2022-09-15T12:07:58.902Z,97.10
2022-09-15T12:10:59.452Z,96.60
2022-09-15T12:13:27.721Z,95.90
2022-09-15T12:15:56.464Z,95.70
2022-09-15T12:18:54.969Z,95.50
2022-09-15T12:21:48.700Z,96.10
2022-09-15T12:24:21.569Z,96.30
2022-09-15T12:26:49.242Z,96.90
2022-09-15T12:29:22.324Z,97.00
2022-09-15T12:32:21.107Z,97.10
2022-09-15T12:35:15.809Z,97.40
2022-09-15T12:37:48.044Z,97.20
2022-09-15T12:40:38.916Z,97.60
2022-09-15T12:43:12.847Z,97.40
2022-09-15T12:45:44.750Z,97.80
2022-09-15T12:48:22.137Z,98.20
2022-09-15T12:51:01.964Z,98.80
2022-09-15T12:53:59.403Z,98.90
2022-09-15T12:56:31.289Z,99.10
2022-09-15T12:59:07.120Z,99.30
2022-09-15T13:01:51.146Z,99.30
2022-09-15T13:04:41.394Z,98.60
2022-09-15T13:07:18.589Z,98.70
2022-09-15T13:10:45.895Z,97.70
2022-09-15T13:13:32.681Z,97.60
2022-09-15T13:16:03.324Z,97.20
2022-09-15T13:18:32.594Z,97.00
2022-09-15T13:21:07.254Z,96.90
2022-09-15T13:23:41.055Z,96.50
2022-09-15T13:26:15.861Z,96.20
2022-09-15T13:28:44.272Z,96.20
2022-09-15T13:31:48.106Z,96.40
2022-09-15T13:35:04.289Z,95.40
2022-09-15T13:38:22.090Z,95.00
2022-09-15T13:41:34.357Z,95.50
2022-09-15T13:44:41.390Z,95.40
2022-09-15T13:47:31.609Z,94.90
2022-09-15T13:50:21.282Z,93.80
2022-09-15T13:53:14.505Z,93.40
2022-09-15T13:55:44.103Z,92.20
2022-09-15T14:01:08.507Z,91.80
2022-09-15T14:03:39.813Z,91.40
2022-09-15T14:06:30.522Z,90.70
2022-09-15T14:09:06.417Z,87.90
2022-09-15T14:11:37.827Z,89.50
2022-09-15T14:14:28.325Z,89.10
2022-09-15T14:16:57.252Z,90.40
2022-09-15T14:19:36.545Z,90.40
2022-09-15T14:22:26.251Z,90.80
2022-09-15T14:24:58.229Z,90.80
2022-09-15T14:27:33.753Z,91.50
2022-09-15T14:30:17.303Z,91.30
2022-09-15T14:32:52.189Z,90.80
2022-09-15T14:35:25.771Z,91.60
2022-09-15T14:37:59.850Z,91.40
2022-09-15T14:40:39.631Z,91.20
2022-09-15T14:43:31.819Z,91.00
2022-09-15T14:46:13.491Z,91.10
2022-09-15T14:48:40.866Z,91.50
2022-09-15T14:51:28.804Z,92.30
2022-09-15T14:54:00.203Z,92.70
2022-09-15T14:56:39.458Z,92.80
2022-09-15T14:59:16.821Z,92.90
2022-09-15T15:02:01.577Z,92.90
2022-09-15T15:04:42.959Z,93.00
2022-09-15T15:07:32.027Z,93.10
2022-09-15T15:10:16.166Z,92.50
2022-09-15T15:12:52.930Z,92.70
2022-09-15T15:15:21.271Z,92.80
2022-09-15T15:17:52.831Z,91.80
2022-09-15T15:20:49.342Z,86.50
2022-09-15T15:23:26.486Z,82.90
2022-09-15T15:25:54.550Z,80.70
2022-09-15T15:28:35.940Z,79.40
2022-09-15T15:31:20.738Z,78.70
2022-09-15T15:34:07.448Z,79.60
2022-09-15T15:36:36.646Z,81.10
2022-09-15T15:39:20.021Z,81.00
2022-09-15T15:44:17.017Z,83.10
2022-09-15T15:47:01.827Z,84.00
2022-09-15T15:49:32.645Z,85.10
2022-09-15T15:52:01.961Z,85.20
2022-09-15T15:54:29.554Z,85.80
2022-09-15T15:57:21.964Z,86.90
2022-09-15T15:59:49.219Z,86.80
2022-09-15T16:02:16.487Z,88.00
2022-09-15T16:04:43.749Z,88.50
2022-09-15T16:07:19.229Z,89.00
2022-09-15T16:09:47.745Z,88.90
2022-09-15T16:12:16.820Z,89.40
2022-09-15T16:14:44.074Z,89.20
2022-09-15T16:17:11.242Z,89.10
2022-09-15T16:19:38.429Z,89.20
2022-09-15T16:22:05.783Z,89.60
2022-09-15T16:24:33.216Z,89.50
2022-09-15T16:27:00.390Z,89.80
2022-09-15T16:29:36.175Z,89.60
2022-09-15T16:32:06.150Z,90.00
2022-09-15T16:34:33.540Z,90.20
2022-09-15T16:37:00.959Z,90.40
2022-09-15T16:39:28.112Z,90.90
2022-09-15T16:41:55.274Z,90.80
2022-09-15T16:44:22.567Z,91.00
2022-09-15T16:46:49.724Z,91.10
2022-09-15T16:49:17.141Z,91.40
2022-09-15T16:51:44.449Z,91.50
2022-09-15T16:54:20.579Z,91.50
2022-09-15T16:56:47.843Z,91.40
2022-09-15T16:59:15.132Z,91.50
2022-09-15T17:01:45.322Z,91.60
2022-09-15T17:04:16.854Z,91.40
2022-09-15T17:06:44.108Z,91.30
2022-09-15T17:09:11.222Z,91.50
2022-09-15T17:11:38.382Z,91.70
2022-09-15T17:14:05.648Z,91.90
2022-09-15T17:16:32.847Z,92.00
2022-09-15T17:19:00.090Z,92.20
2022-09-15T17:21:27.452Z,92.30
2022-09-15T17:23:54.699Z,92.60
2022-09-15T17:26:31.040Z,92.70
2022-09-15T17:28:59.004Z,92.90
2022-09-15T17:31:26.513Z,93.10
2022-09-15T17:33:53.875Z,93.30
2022-09-15T17:36:20.988Z,93.40
2022-09-15T17:38:51.322Z,93.60
2022-09-15T17:41:21.662Z,93.70
2022-09-15T17:43:49.705Z,93.90
2022-09-15T17:46:17.068Z,94.10
2022-09-15T17:48:44.391Z,94.60
2022-09-15T17:51:17.643Z,94.40
2022-09-15T17:53:48.019Z,94.70
2022-09-15T17:56:15.295Z,94.90
2022-09-15T17:58:43.266Z,95.00
2022-09-15T18:01:14.597Z,95.10
2022-09-15T18:03:44.568Z,95.20
2022-09-15T18:06:12.323Z,95.30
2022-09-15T18:08:40.269Z,95.40
2022-09-15T18:11:08.074Z,95.50
2022-09-15T18:13:35.285Z,95.50
2022-09-15T18:16:11.016Z,95.70
2022-09-15T18:18:40.127Z,95.80
2022-09-15T18:21:16.867Z,95.90
2022-09-15T18:23:45.284Z,96.00
2022-09-15T18:26:12.530Z,96.00
2022-09-15T18:28:39.654Z,96.10
2022-09-15T18:31:07.071Z,96.30
2022-09-15T18:33:34.154Z,96.40
2022-09-15T18:36:01.670Z,96.50
2022-09-15T18:38:28.969Z,96.70
2022-09-15T18:40:57.938Z,96.90
2022-09-15T18:43:27.996Z,97.10
2022-09-15T18:46:00.479Z,97.40
2022-09-15T18:48:28.588Z,97.50
2022-09-15T18:50:55.875Z,97.60
2022-09-15T18:53:23.194Z,97.80
2022-09-15T18:55:50.534Z,97.90
2022-09-15T18:58:19.405Z,98.10
2022-09-15T19:00:49.201Z,98.20
2022-09-15T19:03:16.460Z,98.50
2022-09-15T19:05:43.818Z,98.90
2022-09-15T19:08:11.747Z,98.70
2022-09-15T19:10:41.634Z,98.90
2022-09-15T19:13:11.513Z,99.10
2022-09-15T19:15:43.998Z,99.20
2022-09-15T19:18:11.460Z,99.50
2022-09-15T19:20:38.661Z,99.50
2022-09-15T19:23:05.765Z,99.60
2022-09-15T19:25:33.381Z,99.90
2022-09-15T19:28:00.562Z,99.90
2022-09-15T19:30:27.898Z,99.90
2022-09-15T19:32:55.451Z,99.90
2022-09-15T19:35:23.232Z,99.90
2022-09-15T19:37:50.352Z,99.90
2022-09-15T19:40:19.184Z,99.90
2022-09-15T19:42:46.389Z,99.90
2022-09-15T19:45:14.105Z,99.90
2022-09-15T19:47:41.995Z,99.90
2022-09-15T19:50:12.268Z,99.90
2022-09-15T19:52:39.864Z,99.90
2022-09-15T19:55:09.838Z,99.90
2022-09-15T19:57:41.888Z,99.90
2022-09-15T20:00:12.680Z,99.90
2022-09-15T20:02:40.079Z,99.90
2022-09-15T20:05:08.966Z,99.90
2022-09-15T20:07:36.641Z,99.90
2022-09-15T20:10:05.179Z,99.90
2022-09-15T20:12:32.615Z,99.90
2022-09-15T20:14:59.827Z,99.90
2022-09-15T20:17:27.134Z,99.90
2022-09-15T20:19:56.341Z,99.90
2022-09-15T20:22:24.124Z,99.90
2022-09-15T20:24:51.826Z,99.90
2022-09-15T20:27:19.001Z,99.90
2022-09-15T20:29:46.187Z,99.90
2022-09-15T20:32:13.396Z,99.90
2022-09-15T20:34:40.654Z,99.90
2022-09-15T20:37:07.782Z,99.90
2022-09-15T20:39:35.897Z,99.90
2022-09-15T20:42:02.996Z,99.90
2022-09-15T20:44:30.137Z,99.90
2022-09-15T20:46:57.217Z,99.90
2022-09-15T20:49:24.657Z,99.90
2022-09-15T20:51:52.042Z,99.90
2022-09-15T20:54:19.440Z,99.90
2022-09-15T20:56:46.648Z,99.90
2022-09-15T20:59:14.447Z,99.90
2022-09-15T21:01:42.038Z,99.90
2022-09-15T21:04:10.705Z,99.90
2022-09-15T21:06:38.768Z,99.90
2022-09-15T21:09:06.778Z,99.90
2022-09-15T21:11:34.966Z,99.90
2022-09-15T21:14:02.637Z,99.90
2022-09-15T21:16:30.366Z,99.90
2022-09-15T21:18:58.779Z,99.90
2022-09-15T21:21:32.810Z,99.90
2022-09-15T21:24:04.868Z,99.90
2022-09-15T21:26:56.780Z,99.90
2022-09-15T21:29:44.924Z,99.90
2022-09-15T21:32:13.918Z,99.90
2022-09-15T21:34:41.104Z,99.90
2022-09-15T21:37:08.405Z,99.90
2022-09-15T21:39:35.533Z,99.90
2022-09-15T21:42:03.392Z,99.90
2022-09-15T21:44:30.538Z,99.90
2022-09-15T21:46:59.072Z,99.90
2022-09-15T21:49:26.235Z,99.90
2022-09-15T21:51:53.454Z,99.90
2022-09-15T21:54:20.780Z,99.90
2022-09-15T21:56:48.032Z,99.90
2022-09-15T21:59:16.011Z,99.90
2022-09-15T22:01:45.806Z,99.90
2022-09-15T22:04:14.734Z,99.90
2022-09-15T22:06:42.370Z,99.90
2022-09-15T22:09:21.325Z,99.90
2022-09-15T22:11:49.357Z,99.90
2022-09-15T22:14:16.794Z,99.90
2022-09-15T22:16:46.870Z,99.90
2022-09-15T22:19:14.302Z,99.90
2022-09-15T22:21:42.595Z,99.90
2022-09-15T22:24:13.155Z,99.90
2022-09-15T22:26:42.612Z,99.90
2022-09-15T22:29:10.226Z,99.90
2022-09-15T22:31:38.400Z,99.90
2022-09-15T22:34:05.850Z,99.90
2022-09-15T22:36:33.866Z,99.90
2022-09-15T22:39:06.001Z,99.90
2022-09-15T22:41:38.969Z,99.90
2022-09-15T22:44:07.772Z,99.90
2022-09-15T22:46:35.471Z,99.90
2022-09-15T22:49:03.077Z,99.90
2022-09-15T22:51:30.398Z,99.90
2022-09-15T22:53:57.810Z,99.90
2022-09-15T22:56:26.712Z,99.90
2022-09-15T22:59:03.895Z,99.90
2022-09-15T23:01:31.232Z,99.90
2022-09-15T23:04:02.040Z,99.90
2022-09-15T23:06:33.760Z,99.90
2022-09-15T23:09:07.051Z,99.90
2022-09-15T23:11:35.327Z,99.90
2022-09-15T23:14:03.194Z,99.90
2022-09-15T23:16:31.602Z,99.90
2022-09-15T23:18:59.647Z,99.90
2022-09-15T23:21:28.247Z,99.90
2022-09-15T23:23:56.152Z,99.90
2022-09-15T23:26:24.722Z,99.90
2022-09-15T23:28:52.791Z,99.90
2022-09-15T23:31:21.279Z,99.90
2022-09-15T23:33:49.063Z,99.90
2022-09-15T23:36:22.025Z,99.90
2022-09-15T23:38:50.061Z,99.90
2022-09-15T23:41:18.548Z,99.90
2022-09-15T23:43:47.187Z,99.90
2022-09-15T23:46:15.198Z,99.90
2022-09-15T23:48:43.127Z,99.90
2022-09-15T23:51:10.714Z,99.90
2022-09-15T23:53:37.846Z,99.90
2022-09-15T23:56:05.368Z,99.90
2022-09-15T23:58:32.792Z,99.90
